Time;durP1;ratioP1;P1;durP2;ratioP2;P2;SDS_P1;SDS_P2;PMS_P1;PMS_P2;Temp;Humidity;BMP_temperature;BMP_pressure;BME280_temperature;BME280_humidity;BME280_pressure;Samples;Min_cycle;Max_cycle;Signal;HPM_P1;HPM_P2
2022/09/01 00:01:29;;;;;;;6.7;5.4;;;;;;;15.65;96.63867;939.5421;;;;
2022/09/01 00:04:01;;;;;;;7.5;6.4;;;;;;;15.66;96.69824;939.5154;;;;
2022/09/01 00:06:23;;;;;;;7.1;6.3;;;;;;;15.66;96.58301;939.4946;;;;
2022/09/01 00:08:48;;;;;;;7.7;6.9;;;;;;;15.66;96.66211;939.4666;;;;
2022/09/01 00:11:14;;;;;;;7.8;7;;;;;;;15.66;96.69629;939.5339;;;;
2022/09/01 00:13:40;;;;;;;7.2;6.5;;;;;;;15.62;96.52637;939.5055;;;;
2022/09/01 00:16:05;;;;;;;7.6;6.8;;;;;;;15.58;96.88867;939.4649;;;;
2022/09/01 00:18:32;;;;;;;9;7.2;;;;;;;15.61;96.80371;939.5405;;;;
2022/09/01 00:20:58;;;;;;;9.4;7.1;;;;;;;15.62;96.67871;939.5342;;;;
2022/09/01 00:23:21;;;;;;;8.1;7;;;;;;;15.57;97.09473;939.5292;;;;
2022/09/01 00:25:49;;;;;;;9.2;7.6;;;;;;;15.57;97.3252;939.6055;;;;
2022/09/01 00:28:14;;;;;;;7.9;6.9;;;;;;;15.54;97.14648;939.5439;;;;
2022/09/01 00:30:40;;;;;;;7.9;6.6;;;;;;;15.48;97.73242;939.546;;;;
2022/09/01 00:33:06;;;;;;;8.5;6.8;;;;;;;15.47;97.7998;939.5372;;;;
2022/09/01 00:35:33;;;;;;;6.8;6.1;;;;;;;15.5;97.51758;939.529;;;;
2022/09/01 00:37:58;;;;;;;7.4;6.4;;;;;;;15.54;97.37695;939.4645;;;;
2022/09/01 00:40:24;;;;;;;6.7;6;;;;;;;15.53;98.25098;939.4221;;;;
2022/09/01 00:42:50;;;;;;;6.9;6.2;;;;;;;15.5;98.14063;939.4094;;;;
2022/09/01 00:45:15;;;;;;;6.9;6.2;;;;;;;15.44;98.03418;939.365;;;;
2022/09/01 00:47:43;;;;;;;7.6;6;;;;;;;15.39;97.6543;939.3995;;;;
2022/09/01 00:50:10;;;;;;;7.8;7;;;;;;;15.35;97.54297;939.3942;;;;
2022/09/01 00:52:34;;;;;;;7.4;5.9;;;;;;;15.32;97.38477;939.3767;;;;
2022/09/01 00:55:06;;;;;;;7;6.3;;;;;;;15.24;97.86328;939.3083;;;;
2022/09/01 00:57:34;;;;;;;7.7;5.9;;;;;;;15.17;98.55078;939.3189;;;;
2022/09/01 00:59:59;;;;;;;7.4;6;;;;;;;15.13;98.86328;939.3279;;;;
2022/09/01 01:02:29;;;;;;;7.8;6.3;;;;;;;15.11;99.53027;939.308;;;;
2022/09/01 01:04:59;;;;;;;9.3;6.3;;;;;;;15.21;98.89551;939.244;;;;
2022/09/01 01:07:21;;;;;;;6.9;5.6;;;;;;;15.22;98.5166;939.1921;;;;
2022/09/01 01:09:44;;;;;;;7.3;5.6;;;;;;;15.29;97.84961;939.2414;;;;
2022/09/01 01:12:16;;;;;;;7.1;5.6;;;;;;;15.29;97.71289;939.3192;;;;
2022/09/01 01:14:35;;;;;;;7.7;6.1;;;;;;;15.3;97.5752;939.2693;;;;
2022/09/01 01:17:03;;;;;;;7.9;5.7;;;;;;;15.28;97.43457;939.1853;;;;
2022/09/01 01:24:27;;;;;;;7.3;6;;;;;;;15.21;97.78711;939.2576;;;;
2022/09/01 01:26:52;;;;;;;6.7;5.9;;;;;;;15.21;98.09863;939.2216;;;;
2022/09/01 01:29:18;;;;;;;7.3;6.1;;;;;;;15.22;98.40137;939.2209;;;;
2022/09/01 01:31:43;;;;;;;6;5.4;;;;;;;15.24;98.04785;939.1856;;;;
2022/09/01 01:34:10;;;;;;;6.3;5.5;;;;;;;15.26;98.05176;939.2144;;;;
2022/09/01 01:36:35;;;;;;;6;5;;;;;;;15.29;97.28613;939.2413;;;;
2022/09/01 01:39:05;;;;;;;5.8;4.9;;;;;;;15.22;97.0166;939.2483;;;;
2022/09/01 01:41:30;;;;;;;5.7;5.1;;;;;;;15.21;97.2793;939.2144;;;;
2022/09/01 01:43:55;;;;;;;4.9;4.4;;;;;;;15.24;96.75488;939.2377;;;;
2022/09/01 01:46:24;;;;;;;6.3;4.9;;;;;;;15.24;96.26074;939.2601;;;;
2022/09/01 01:48:51;;;;;;;5.6;4.6;;;;;;;15.13;96.80176;939.1972;;;;
2022/09/01 01:51:13;;;;;;;5.5;4.8;;;;;;;15.06;97.81055;939.1856;;;;
2022/09/01 01:53:44;;;;;;;6.4;4.5;;;;;;;15.05;97.7168;939.1785;;;;
2022/09/01 01:56:11;;;;;;;4.8;4.3;;;;;;;15.06;97.5459;939.2033;;;;
2022/09/01 01:58:38;;;;;;;5;4.5;;;;;;;15.04;96.90723;939.2395;;;;
2022/09/01 02:01:05;;;;;;;5.6;4.7;;;;;;;14.99;97.12793;939.266;;;;
2022/09/01 02:03:29;;;;;;;6.3;4.5;;;;;;;14.89;97.50684;939.253;;;;
2022/09/01 02:05:56;;;;;;;4.4;4;;;;;;;14.98;97.32129;939.2797;;;;
2022/09/01 02:08:21;;;;;;;5.8;4.6;;;;;;;14.93;97.3418;939.2415;;;;
2022/09/01 02:10:48;;;;;;;6.1;5;;;;;;;14.77;98.31152;939.2413;;;;
2022/09/01 02:13:15;;;;;;;5.9;5.3;;;;;;;14.78;98.24609;939.2533;;;;
2022/09/01 02:15:47;;;;;;;5.7;5.1;;;;;;;14.8;97.99609;939.2122;;;;
2022/09/01 02:18:13;;;;;;;6.7;5.3;;;;;;;14.8;97.74023;939.3013;;;;
2022/09/01 02:20:37;;;;;;;6.7;4.6;;;;;;;14.76;97.54785;939.2678;;;;
2022/09/01 02:23:08;;;;;;;5.5;4.4;;;;;;;14.8;96.40332;939.262;;;;
2022/09/01 02:25:28;;;;;;;7.2;4.5;;;;;;;14.83;95.6709;939.3712;;;;
2022/09/01 02:27:54;;;;;;;4.9;4.4;;;;;;;14.72;96.24902;939.3209;;;;
2022/09/01 02:30:21;;;;;;;6.7;4.4;;;;;;;14.76;95.92285;939.3094;;;;
2022/09/01 02:32:46;;;;;;;8.5;5.8;;;;;;;14.75;96.64648;939.2486;;;;
2022/09/01 02:35:18;;;;;;;6.4;5.1;;;;;;;14.72;97.44629;939.2712;;;;
2022/09/01 02:37:48;;;;;;;5.6;5;;;;;;;14.72;97.6875;939.2495;;;;
2022/09/01 02:40:11;;;;;;;7.3;5;;;;;;;14.75;97.81152;939.2791;;;;
2022/09/01 02:42:40;;;;;;;4.9;4.4;;;;;;;14.81;97.26074;939.2579;;;;
2022/09/01 02:45:06;;;;;;;5.3;4.8;;;;;;;14.81;96.8916;939.225;;;;
2022/09/01 02:47:29;;;;;;;5.7;4.9;;;;;;;14.74;97.14063;939.2205;;;;
2022/09/01 02:50:02;;;;;;;5.3;4.7;;;;;;;14.74;97.09473;939.2342;;;;
2022/09/01 02:52:22;;;;;;;5.8;4.7;;;;;;;14.71;97.07715;939.2608;;;;
2022/09/01 02:54:49;;;;;;;4.8;4.3;;;;;;;14.66;96.5459;939.2491;;;;
2022/09/01 02:57:17;;;;;;;4.6;4.1;;;;;;;14.6;95.71582;939.2665;;;;
2022/09/01 02:59:42;;;;;;;4.6;3.9;;;;;;;14.56;95.29102;939.254;;;;
2022/09/01 03:02:11;;;;;;;4;3.6;;;;;;;14.48;95.67676;939.1895;;;;
2022/09/01 03:04:40;;;;;;;4.6;4.1;;;;;;;14.49;96.06836;939.1782;;;;
2022/09/01 03:07:05;;;;;;;4.8;4.2;;;;;;;14.54;96.08203;939.1339;;;;
2022/09/01 03:09:33;;;;;;;4.9;4.4;;;;;;;14.56;96.54688;939.0689;;;;
2022/09/01 03:11:57;;;;;;;6.1;4.8;;;;;;;14.61;96.62598;939.0309;;;;
2022/09/01 03:14:25;;;;;;;5.9;5.1;;;;;;;14.63;97.42578;939.0793;;;;
2022/09/01 03:16:50;;;;;;;5.2;4.7;;;;;;;14.57;98.17383;939.044;;;;
2022/09/01 03:19:18;;;;;;;5.5;4.7;;;;;;;14.49;99.07813;939.0779;;;;
2022/09/01 03:21:42;;;;;;;5;4.5;;;;;;;14.49;99.46973;939.0115;;;;
2022/09/01 03:24:13;;;;;;;5.2;4.7;;;;;;;14.61;99.33496;939.0334;;;;
2022/09/01 03:26:35;;;;;;;5.7;5.2;;;;;;;14.65;99.30859;939.0391;;;;
2022/09/01 03:29:01;;;;;;;5.7;5.1;;;;;;;14.58;99.39746;939.0126;;;;
2022/09/01 03:31:27;;;;;;;6.7;5.8;;;;;;;14.57;100;938.9967;;;;
2022/09/01 03:33:55;;;;;;;7;6.3;;;;;;;14.64;99.9082;938.9886;;;;
2022/09/01 03:36:19;;;;;;;7.2;6.5;;;;;;;14.67;99.99219;938.9492;;;;
2022/09/01 03:38:48;;;;;;;7.1;6.2;;;;;;;14.76;99.64648;938.9559;;;;
2022/09/01 03:41:12;;;;;;;7.6;6;;;;;;;14.84;99.07715;938.9702;;;;
2022/09/01 03:43:37;;;;;;;7;5.6;;;;;;;14.85;98.74414;938.9397;;;;
2022/09/01 03:46:08;;;;;;;6.3;5.7;;;;;;;14.9;98.37402;938.9282;;;;
2022/09/01 03:48:31;;;;;;;6.7;6;;;;;;;14.91;97.94043;938.9425;;;;
2022/09/01 03:51:01;;;;;;;6.5;5.9;;;;;;;14.89;97.71484;938.8176;;;;
2022/09/01 03:53:26;;;;;;;6.3;5.5;;;;;;;14.91;97.51367;938.8767;;;;
2022/09/01 03:55:48;;;;;;;8.6;5.9;;;;;;;14.92;97.30566;938.8936;;;;
2022/09/01 03:58:17;;;;;;;7.6;5.6;;;;;;;14.9;97.55566;938.8994;;;;
2022/09/01 04:02:34;;;;;;;6.6;5.2;;;;;;;14.84;97.57813;938.8853;;;;
2022/09/01 04:05:01;;;;;;;6.7;5;;;;;;;14.88;97.47266;938.8738;;;;
2022/09/01 04:07:27;;;;;;;6.1;4.7;;;;;;;14.92;96.96191;938.8286;;;;
2022/09/01 04:09:52;;;;;;;5.9;5.1;;;;;;;14.94;96.93066;938.834;;;;
2022/09/01 04:12:19;;;;;;;8.7;5.3;;;;;;;14.99;97.04688;938.8273;;;;
2022/09/01 04:14:46;;;;;;;8.3;5.9;;;;;;;14.95;97.35742;938.794;;;;
2022/09/01 04:19:37;;;;;;;6.1;5.4;;;;;;;14.88;98.31445;938.7559;;;;
2022/09/01 04:22:00;;;;;;;6.1;5.3;;;;;;;14.89;98.55664;938.7695;;;;
2022/09/01 04:24:29;;;;;;;6.2;5.5;;;;;;;14.87;98.58691;938.7928;;;;
2022/09/01 04:26:55;;;;;;;5.6;5.1;;;;;;;14.94;97.7041;938.782;;;;
2022/09/01 04:29:25;;;;;;;8.2;6.3;;;;;;;14.92;97.68652;938.7556;;;;
2022/09/01 04:31:47;;;;;;;6.1;5.5;;;;;;;14.89;97.94531;938.7262;;;;
2022/09/01 04:34:12;;;;;;;7.9;5.9;;;;;;;14.89;97.89941;938.6941;;;;
2022/09/01 04:36:36;;;;;;;7.9;6;;;;;;;14.9;98.09961;938.7053;;;;
2022/09/01 04:39:00;;;;;;;9.8;6.5;;;;;;;14.95;97.76367;938.7258;;;;
2022/09/01 04:41:30;;;;;;;8.1;6.1;;;;;;;14.9;98.3418;938.7012;;;;
2022/09/01 04:44:00;;;;;;;6;5.4;;;;;;;14.97;97.92871;938.627;;;;
2022/09/01 04:46:27;;;;;;;6.1;5.3;;;;;;;15.01;97.77734;938.7358;;;;
2022/09/01 04:48:49;;;;;;;5.8;5.2;;;;;;;14.99;98.05957;938.7856;;;;
2022/09/01 04:51:19;;;;;;;7.9;5.6;;;;;;;15.03;97.94531;938.801;;;;
2022/09/01 04:54:13;;;;;;;6.7;5.5;;;;;;;15.09;97.68066;938.7997;;;;
2022/09/01 04:56:35;;;;;;;6.1;5.1;;;;;;;15.14;97.0791;938.8201;;;;
2022/09/01 04:58:59;;;;;;;5.8;5.2;;;;;;;15.12;97.25977;938.8765;;;;
2022/09/01 05:01:41;;;;;;;5;4.5;;;;;;;15.16;96.21777;938.8497;;;;
2022/09/01 05:04:00;;;;;;;5.7;4.9;;;;;;;15.14;96.44434;938.9005;;;;
2022/09/01 05:06:23;;;;;;;5.6;5;;;;;;;15.15;96.13477;938.9204;;;;
2022/09/01 05:08:51;;;;;;;6;5.2;;;;;;;15.15;96.06543;938.9155;;;;
2022/09/01 05:11:21;;;;;;;6.2;5.3;;;;;;;15.09;96.67676;938.9264;;;;
2022/09/01 05:13:44;;;;;;;6.2;5.6;;;;;;;15.13;96.89258;938.9037;;;;
2022/09/01 05:16:24;;;;;;;6.7;5.6;;;;;;;15.17;96.90039;938.8456;;;;
2022/09/01 05:18:49;;;;;;;6.2;5;;;;;;;15.25;95.9375;938.8605;;;;
2022/09/01 05:21:16;;;;;;;6.5;4.9;;;;;;;15.31;95.36035;938.8674;;;;
2022/09/01 05:23:41;;;;;;;5.3;4.8;;;;;;;15.26;95.72168;938.9142;;;;
2022/09/01 05:26:13;;;;;;;5.3;4.8;;;;;;;15.27;95.2627;938.9278;;;;
2022/09/01 05:28:34;;;;;;;6.9;4.6;;;;;;;15.31;94.72949;938.9099;;;;
2022/09/01 05:31:00;;;;;;;4.4;4;;;;;;;15.3;94.80469;938.9252;;;;
2022/09/01 05:33:24;;;;;;;4.8;4.2;;;;;;;15.36;93.56152;938.8853;;;;
2022/09/01 05:35:54;;;;;;;4.9;4.3;;;;;;;15.46;93.88281;938.86;;;;
2022/09/01 05:38:23;;;;;;;5.7;4.8;;;;;;;15.49;92.90723;938.8566;;;;
2022/09/01 05:40:50;;;;;;;5.1;4.6;;;;;;;15.51;92.64551;938.8331;;;;
2022/09/01 05:43:13;;;;;;;5.5;4.9;;;;;;;15.54;92.74609;938.8826;;;;
2022/09/01 05:45:43;;;;;;;5.1;4.6;;;;;;;15.56;93.49805;938.8897;;;;
2022/09/01 05:48:08;;;;;;;6.6;5.3;;;;;;;15.47;94.05664;938.8575;;;;
2022/09/01 05:50:39;;;;;;;5.5;4.6;;;;;;;15.39;95.0918;938.8627;;;;
2022/09/01 05:53:09;;;;;;;6.8;5;;;;;;;15.51;94.68945;938.8716;;;;
2022/09/01 05:55:36;;;;;;;5.8;5;;;;;;;15.55;94.20313;938.8552;;;;
2022/09/01 05:57:53;;;;;;;5.8;5.1;;;;;;;15.71;93.31152;938.8873;;;;
2022/09/01 06:00:20;;;;;;;6.4;5.1;;;;;;;15.78;92.24023;938.8834;;;;
2022/09/01 06:02:45;;;;;;;5.7;5.1;;;;;;;15.79;92.40625;938.8912;;;;
2022/09/01 06:05:14;;;;;;;6.1;5.1;;;;;;;15.79;91.94238;938.8929;;;;
2022/09/01 06:07:41;;;;;;;5.9;5.2;;;;;;;15.8;92.6377;938.9121;;;;
2022/09/01 06:10:03;;;;;;;8.1;5.3;;;;;;;15.94;92.28418;938.8684;;;;
2022/09/01 06:12:33;;;;;;;6.2;4.9;;;;;;;16.03;91.12598;938.8975;;;;
2022/09/01 06:14:58;;;;;;;5.8;4.9;;;;;;;16.07;89.83887;938.9196;;;;
2022/09/01 06:17:23;;;;;;;5.9;4.7;;;;;;;16.17;89.96094;938.925;;;;
2022/09/01 06:19:54;;;;;;;6.2;5.1;;;;;;;16.27;89.88086;938.9169;;;;
2022/09/01 06:22:19;;;;;;;5.4;4.9;;;;;;;16.36;89.68945;938.8958;;;;
2022/09/01 06:24:46;;;;;;;5.9;5.3;;;;;;;16.48;89.65527;938.8858;;;;
2022/09/01 06:27:10;;;;;;;5.4;4.9;;;;;;;16.55;88.6748;938.8848;;;;
2022/09/01 06:29:39;;;;;;;5.9;5.2;;;;;;;16.64;88.7627;938.9018;;;;
2022/09/01 06:32:07;;;;;;;5.4;4.9;;;;;;;16.99;87.52246;938.9041;;;;
2022/09/01 06:34:28;;;;;;;6.5;5.9;;;;;;;17.23;87.58496;938.8705;;;;
2022/09/01 06:36:54;;;;;;;7;5.2;;;;;;;17.71;85.27734;938.8161;;;;
2022/09/01 06:39:20;;;;;;;5.5;4.8;;;;;;;17.82;83.23145;938.8706;;;;
2022/09/01 06:41:48;;;;;;;5.5;5;;;;;;;17.83;83.8125;938.8281;;;;
2022/09/01 06:44:12;;;;;;;5.6;5.1;;;;;;;17.81;83.17188;938.8224;;;;
2022/09/01 06:46:40;;;;;;;7.1;5.3;;;;;;;17.77;83.37207;938.8618;;;;
2022/09/01 06:49:10;;;;;;;6;5.3;;;;;;;17.61;83.50586;938.8945;;;;
2022/09/01 06:51:30;;;;;;;6.6;5.7;;;;;;;17.53;84.81348;938.8702;;;;
2022/09/01 06:53:58;;;;;;;7.3;5.6;;;;;;;17.51;84.20605;938.8929;;;;
2022/09/01 06:56:23;;;;;;;7.3;5.7;;;;;;;17.56;84.28418;938.8415;;;;
2022/09/01 06:58:49;;;;;;;6.8;6;;;;;;;17.4;86.70117;938.8752;;;;
2022/09/01 07:01:16;;;;;;;6.6;5.9;;;;;;;17.54;85.82422;938.8103;;;;
2022/09/01 07:03:43;;;;;;;6.7;5.9;;;;;;;17.76;85.68066;938.912;;;;
2022/09/01 07:06:09;;;;;;;6.9;5.5;;;;;;;;;;;;;
2022/09/01 07:08:40;;;;;;;7.1;6.2;;;;;;;;;;;;;
2022/09/01 07:11:06;;;;;;;7.6;6.1;;;;;;;;;;;;;
2022/09/01 07:13:32;;;;;;;7.6;5.5;;;;;;;;;;;;;
2022/09/01 07:15:59;;;;;;;6.4;5.8;;;;;;;;;;;;;
2022/09/01 07:18:25;;;;;;;6.3;5.7;;;;;;;;;;;;;
2022/09/01 07:20:51;;;;;;;6;5.2;;;;;;;;;;;;;
2022/09/01 07:23:18;;;;;;;7;5.8;;;;;;;;;;;;;
2022/09/01 07:25:42;;;;;;;7;6.1;;;;;;;;;;;;;
2022/09/01 07:28:07;;;;;;;7.4;6.6;;;;;;;;;;;;;
2022/09/01 07:30:34;;;;;;;8.1;6.6;;;;;;;;;;;;;
2022/09/01 07:33:00;;;;;;;8.1;7;;;;;;;;;;;;;
2022/09/01 07:35:25;;;;;;;7.8;6.7;;;;;;;;;;;;;
2022/09/01 07:37:51;;;;;;;7.5;6.7;;;;;;;;;;;;;
2022/09/01 07:40:18;;;;;;;8;6.8;;;;;;;;;;;;;
2022/09/01 07:42:41;;;;;;;8.9;7.2;;;;;;;;;;;;;
2022/09/01 07:45:08;;;;;;;7.7;6.5;;;;;;;;;;;;;
2022/09/01 07:47:34;;;;;;;8.1;6.8;;;;;;;;;;;;;
2022/09/01 07:49:58;;;;;;;7.1;6.4;;;;;;;;;;;;;
2022/09/01 07:52:22;;;;;;;7.7;6.1;;;;;;;;;;;;;
2022/09/01 07:54:47;;;;;;;7.9;7.1;;;;;;;;;;;;;
2022/09/01 07:57:14;;;;;;;8.3;7.1;;;;;;;;;;;;;
2022/09/01 07:59:39;;;;;;;6.4;5.8;;;;;;;;;;;;;
2022/09/01 08:02:05;;;;;;;6.5;5.9;;;;;;;;;;;;;
2022/09/01 08:04:33;;;;;;;6;5.4;;;;;;;;;;;;;
2022/09/01 08:06:56;;;;;;;5.3;4.8;;;;;;;;;;;;;
2022/09/01 08:09:20;;;;;;;9.2;5.8;;;;;;;;;;;;;
2022/09/01 08:11:46;;;;;;;5.4;4.9;;;;;;;;;;;;;
2022/09/01 08:14:11;;;;;;;5;4.5;;;;;;;;;;;;;
2022/09/01 08:16:36;;;;;;;4.9;4.4;;;;;;;;;;;;;
2022/09/01 08:19:03;;;;;;;6;4.5;;;;;;;;;;;;;
2022/09/01 08:21:30;;;;;;;4.6;4.1;;;;;;;;;;;;;
2022/09/01 08:23:54;;;;;;;4.5;4.1;;;;;;;;;;;;;
2022/09/01 08:26:19;;;;;;;4.5;4.1;;;;;;;;;;;;;
2022/09/01 08:28:44;;;;;;;5.6;3.8;;;;;;;;;;;;;
2022/09/01 08:31:09;;;;;;;4.1;3.7;;;;;;;;;;;;;
2022/09/01 08:33:35;;;;;;;4.5;4.1;;;;;;;;;;;;;
2022/09/01 08:36:00;;;;;;;4.5;4.1;;;;;;;;;;;;;
2022/09/01 08:38:26;;;;;;;3.7;3.4;;;;;;;;;;;;;
2022/09/01 08:40:52;;;;;;;4.1;3.7;;;;;;;;;;;;;
2022/09/01 08:43:16;;;;;;;3.6;3.3;;;;;;;;;;;;;
2022/09/01 08:45:41;;;;;;;3.3;3;;;;;;;;;;;;;
2022/09/01 08:48:09;;;;;;;3.4;3.1;;;;;;;;;;;;;
2022/09/01 08:50:34;;;;;;;5.5;4;;;;;;;;;;;;;
2022/09/01 08:52:59;;;;;;;12.8;7.9;;;;;;;;;;;;;
2022/09/01 08:55:26;;;;;;;6.3;4.7;;;;;;;;;;;;;
2022/09/01 08:57:51;;;;;;;6.5;3.5;;;;;;;;;;;;;
2022/09/01 09:00:17;;;;;;;3.7;3.4;;;;;;;;;;;;;
2022/09/01 09:02:43;;;;;;;4.2;3.8;;;;;;;;;;;;;
2022/09/01 09:05:08;;;;;;;4;3.7;;;;;;;;;;;;;
2022/09/01 09:07:33;;;;;;;5.5;4.3;;;;;;;;;;;;;
2022/09/01 09:09:58;;;;;;;3.1;2.8;;;;;;;;;;;;;
2022/09/01 09:12:27;;;;;;;3.4;3.1;;;;;;;;;;;;;
2022/09/01 09:14:52;;;;;;;4.8;3.9;;;;;;;;;;;;;
2022/09/01 09:17:19;;;;;;;4;3.6;;;;;;;;;;;;;
2022/09/01 09:19:44;;;;;;;4.7;3.8;;;;;;;;;;;;;
2022/09/01 09:22:10;;;;;;;4.2;3.8;;;;;;;;;;;;;
2022/09/01 09:24:49;;;;;;;7.1;4.9;;;;;;;;;;;;;
2022/09/01 09:27:02;;;;;;;7.4;5.7;;;;;;;;;;;;;
2022/09/01 09:29:27;;;;;;;13.3;8.3;;;;;;;;;;;;;
2022/09/01 09:31:52;;;;;;;3.9;3.2;;;;;;;;;;;;;
2022/09/01 09:34:19;;;;;;;3.7;3.1;;;;;;;;;;;;;
2022/09/01 09:36:45;;;;;;;4;3.1;;;;;;;;;;;;;
2022/09/01 09:39:08;;;;;;;3.7;3.2;;;;;;;;;;;;;
2022/09/01 09:41:33;;;;;;;4.2;3.6;;;;;;;;;;;;;
2022/09/01 09:43:59;;;;;;;3.7;3.4;;;;;;;;;;;;;
2022/09/01 09:46:24;;;;;;;3.7;3.3;;;;;;;;;;;;;
2022/09/01 09:48:49;;;;;;;4.2;3.8;;;;;;;;;;;;;
2022/09/01 09:51:15;;;;;;;3.9;3.5;;;;;;;;;;;;;
2022/09/01 09:53:40;;;;;;;4.9;4;;;;;;;;;;;;;
2022/09/01 09:56:08;;;;;;;3.4;3.1;;;;;;;;;;;;;
2022/09/01 09:58:32;;;;;;;4.2;3.6;;;;;;;;;;;;;
2022/09/01 10:00:59;;;;;;;4;3.7;;;;;;;;;;;;;
2022/09/01 10:03:24;;;;;;;5.1;4;;;;;;;;;;;;;
2022/09/01 10:05:50;;;;;;;5.5;4;;;;;;;;;;;;;
2022/09/01 10:08:15;;;;;;;4.1;3.6;;;;;;;;;;;;;
2022/09/01 10:10:40;;;;;;;3.2;2.7;;;;;;;;;;;;;
2022/09/01 10:13:05;;;;;;;3.3;3;;;;;;;;;;;;;
2022/09/01 10:15:31;;;;;;;3.3;3;;;;;;;;;;;;;
2022/09/01 10:17:58;;;;;;;3.4;3.1;;;;;;;;;;;;;
2022/09/01 10:20:24;;;;;;;3.4;3.1;;;;;;;;;;;;;
2022/09/01 10:22:49;;;;;;;3.2;2.8;;;;;;;;;;;;;
2022/09/01 10:25:15;;;;;;;3;2.7;;;;;;;;;;;;;
2022/09/01 10:27:40;;;;;;;3.2;2.9;;;;;;;;;;;;;
2022/09/01 10:30:05;;;;;;;3.2;2.9;;;;;;;;;;;;;
2022/09/01 10:32:31;;;;;;;2.7;2.5;;;;;;;;;;;;;
2022/09/01 10:34:56;;;;;;;3.4;3;;;;;;;;;;;;;
2022/09/01 10:39:54;;;;;;;3.3;3;;;;;;;;;;;;;
2022/09/01 10:42:20;;;;;;;2.9;2.7;;;;;;;;;;;;;
2022/09/01 10:44:44;;;;;;;3.3;2.9;;;;;;;;;;;;;
2022/09/01 10:47:10;;;;;;;2.7;2.5;;;;;;;;;;;;;
2022/09/01 10:49:35;;;;;;;3.6;2.9;;;;;;;;;;;;;
2022/09/01 10:52:00;;;;;;;2.2;2;;;;;;;;;;;;;
2022/09/01 10:54:25;;;;;;;2.7;2.5;;;;;;;;;;;;;
2022/09/01 10:56:52;;;;;;;3.2;2.9;;;;;;;;;;;;;
2022/09/01 10:59:15;;;;;;;2.9;2.7;;;;;;;;;;;;;
2022/09/01 11:01:40;;;;;;;4.2;2.6;;;;;;;;;;;;;
2022/09/01 11:04:06;;;;;;;3.2;2.8;;;;;;;;;;;;;
2022/09/01 11:06:31;;;;;;;4.3;2.9;;;;;;;;;;;;;
2022/09/01 11:09:06;;;;;;;3;2.8;;;;;;;;;;;;;
2022/09/01 11:11:25;;;;;;;3.6;2.7;;;;;;;;;;;;;
2022/09/01 11:13:50;;;;;;;3.7;3;;;;;;;;;;;;;
2022/09/01 11:16:19;;;;;;;3.4;3.1;;;;;;;;;;;;;
2022/09/01 11:18:45;;;;;;;3.5;3.2;;;;;;;;;;;;;
2022/09/01 11:21:10;;;;;;;3;2.8;;;;;;;;;;;;;
2022/09/01 11:23:36;;;;;;;3.1;2.9;;;;;;;;;;;;;
2022/09/01 11:26:01;;;;;;;3.1;2.8;;;;;;;;;;;;;
2022/09/01 11:28:26;;;;;;;3.5;3.2;;;;;;;;;;;;;
2022/09/01 11:30:54;;;;;;;4;3.2;;;;;;;;;;;;;
2022/09/01 11:33:16;;;;;;;3.7;3.2;;;;;;;;;;;;;
2022/09/01 11:35:42;;;;;;;3.5;3.2;;;;;;;;;;;;;
2022/09/01 11:38:07;;;;;;;3.2;2.8;;;;;;;;;;;;;
2022/09/01 11:40:32;;;;;;;3.5;3.2;;;;;;;;;;;;;
2022/09/01 11:42:57;;;;;;;3.8;2.9;;;;;;;;;;;;;
2022/09/01 11:45:22;;;;;;;3.3;3;;;;;;;;;;;;;
2022/09/01 11:47:58;;;;;;;3.6;2.7;;;;;;;;;;;;;
2022/09/01 11:50:19;;;;;;;2.9;2.7;;;;;;;;;;;;;
2022/09/01 11:52:44;;;;;;;3.1;2.9;;;;;;;;;;;;;
2022/09/01 11:55:12;;;;;;;3.7;3.1;;;;;;;;;;;;;
2022/09/01 11:57:39;;;;;;;3.8;2.8;;;;;;;;;;;;;
2022/09/01 12:00:04;;;;;;;3.2;3;;;;;;;;;;;;;
2022/09/01 12:02:32;;;;;;;3.9;3.4;;;;;;;;;;;;;
2022/09/01 12:04:57;;;;;;;3.2;2.9;;;;;;;;;;;;;
2022/09/01 12:07:23;;;;;;;3.5;3.2;;;;;;;;;;;;;
2022/09/01 12:09:48;;;;;;;3.6;3.1;;;;;;;;;;;;;
2022/09/01 12:12:14;;;;;;;4;3.3;;;;;;;;;;;;;
2022/09/01 12:14:39;;;;;;;3.6;3.3;;;;;;;;;;;;;
2022/09/01 12:17:06;;;;;;;4;3.4;;;;;;;;;;;;;
2022/09/01 12:19:31;;;;;;;4;3.2;;;;;;;;;;;;;
2022/09/01 12:21:57;;;;;;;3.5;3.2;;;;;;;;;;;;;
2022/09/01 12:24:22;;;;;;;3.2;2.9;;;;;;;;;;;;;
2022/09/01 12:26:47;;;;;;;3.6;2.9;;;;;;;;;;;;;
2022/09/01 12:29:12;;;;;;;4.1;3;;;;;;;;;;;;;
2022/09/01 12:31:39;;;;;;;3.1;2.8;;;;;;;;;;;;;
2022/09/01 12:34:04;;;;;;;3.3;2.7;;;;;;;;;;;;;
2022/09/01 12:36:29;;;;;;;2.9;2.7;;;;;;;;;;;;;
2022/09/01 12:38:54;;;;;;;2.8;2.6;;;;;;;;;;;;;
2022/09/01 12:41:21;;;;;;;2.7;2.3;;;;;;;;;;;;;
2022/09/01 12:43:47;;;;;;;2.9;2.7;;;;;;;;;;;;;
2022/09/01 12:46:11;;;;;;;3.5;3.2;;;;;;;;;;;;;
2022/09/01 12:48:37;;;;;;;3.9;3.2;;;;;;;;;;;;;
2022/09/01 12:51:02;;;;;;;3.2;2.9;;;;;;;;;;;;;
2022/09/01 12:53:27;;;;;;;3.5;2.7;;;;;;;;;;;;;
2022/09/01 12:55:52;;;;;;;3.4;3.1;;;;;;;;;;;;;
2022/09/01 12:58:17;;;;;;;3.2;2.9;;;;;;;;;;;;;
2022/09/01 13:00:43;;;;;;;3.5;3.2;;;;;;;;;;;;;
2022/09/01 13:03:08;;;;;;;3.9;3.3;;;;;;;;;;;;;
2022/09/01 13:05:35;;;;;;;3.7;3.1;;;;;;;;;;;;;
2022/09/01 13:08:01;;;;;;;3.6;3.3;;;;;;;;;;;;;
2022/09/01 13:10:36;;;;;;;3.7;3.4;;;;;;;;;;;;;
2022/09/01 13:13:01;;;;;;;4.1;3.7;;;;;;;;;;;;;
2022/09/01 13:15:26;;;;;;;4.3;3.9;;;;;;;;;;;;;
2022/09/01 13:17:52;;;;;;;3.6;3.3;;;;;;;;;;;;;
2022/09/01 13:20:18;;;;;;;3.8;3.5;;;;;;;;;;;;;
2022/09/01 13:22:43;;;;;;;4.2;3.7;;;;;;;;;;;;;
2022/09/01 13:25:09;;;;;;;3.6;3.3;;;;;;;;;;;;;
2022/09/01 13:27:36;;;;;;;3.5;3.2;;;;;;;;;;;;;
2022/09/01 13:30:00;;;;;;;3.3;3;;;;;;;;;;;;;
2022/09/01 13:32:27;;;;;;;3.1;2.8;;;;;;;;;;;;;
2022/09/01 13:34:52;;;;;;;3.2;2.8;;;;;;;;;;;;;
2022/09/01 13:37:19;;;;;;;2.9;2.6;;;;;;;;;;;;;
2022/09/01 13:39:45;;;;;;;3;2.7;;;;;;;;;;;;;
2022/09/01 13:42:12;;;;;;;3;2.8;;;;;;;;;;;;;
2022/09/01 13:44:35;;;;;;;2.9;2.7;;;;;;;;;;;;;
2022/09/01 13:47:02;;;;;;;5;2.7;;;;;;;;;;;;;
2022/09/01 13:49:26;;;;;;;4.1;3.3;;;;;;;;;;;;;
2022/09/01 13:51:52;;;;;;;2.8;2.6;;;;;;;;;;;;;
2022/09/01 13:54:17;;;;;;;2.9;2.7;;;;;;;;;;;;;
2022/09/01 13:56:44;;;;;;;3.2;2.9;;;;;;;;;;;;;
2022/09/01 13:59:09;;;;;;;3.3;3;;;;;;;;;;;;;
2022/09/01 14:01:37;;;;;;;3.2;2.9;;;;;;;;;;;;;
2022/09/01 14:04:03;;;;;;;3.2;2.9;;;;;;;;;;;;;
2022/09/01 14:06:29;;;;;;;2.7;2.5;;;;;;;;;;;;;
2022/09/01 14:08:54;;;;;;;3.3;2.9;;;;;;;;;;;;;
2022/09/01 14:11:20;;;;;;;2.8;2.6;;;;;;;;;;;;;
2022/09/01 14:13:46;;;;;;;2.8;2.4;;;;;;;;;;;;;
2022/09/01 14:16:13;;;;;;;2.8;2.6;;;;;;;;;;;;;
2022/09/01 14:18:38;;;;;;;2.9;2.6;;;;;;;;;;;;;
2022/09/01 14:21:03;;;;;;;3.7;2.6;;;;;;;;;;;;;
2022/09/01 14:23:28;;;;;;;3.8;2.4;;;;;;;;;;;;;
2022/09/01 14:25:55;;;;;;;2.9;2.6;;;;;;;;;;;;;
2022/09/01 14:28:20;;;;;;;2.7;2.5;;;;;;;;;;;;;
2022/09/01 14:30:46;;;;;;;3.4;2.6;;;;;;;;;;;;;
2022/09/01 14:33:11;;;;;;;2.5;2.3;;;;;;;;;;;;;
2022/09/01 14:35:38;;;;;;;2.7;2.5;;;;;;;;;;;;;
2022/09/01 14:38:04;;;;;;;2.6;2.4;;;;;;;;;;;;;
2022/09/01 14:40:29;;;;;;;2.7;2.5;;;;;;;;;;;;;
2022/09/01 14:42:54;;;;;;;3.1;2.8;;;;;;;;;;;;;
2022/09/01 14:45:21;;;;;;;3.6;3.3;;;;;;;;;;;;;
2022/09/01 14:47:47;;;;;;;3.1;2.9;;;;;;;;;;;;;
2022/09/01 14:50:12;;;;;;;3.2;2.9;;;;;;;;;;;;;
2022/09/01 14:52:37;;;;;;;2.9;2.7;;;;;;;;;;;;;
2022/09/01 14:55:04;;;;;;;2.8;2.5;;;;;;;;;;;;;
2022/09/01 14:57:29;;;;;;;3;2.7;;;;;;;;;;;;;
2022/09/01 14:59:55;;;;;;;3;2.8;;;;;;;;;;;;;
2022/09/01 15:02:20;;;;;;;2.7;2.5;;;;;;;;;;;;;
2022/09/01 15:04:48;;;;;;;3.1;2.8;;;;;;;;;;;;;
2022/09/01 15:07:13;;;;;;;2.9;2.6;;;;;;;;;;;;;
2022/09/01 15:09:38;;;;;;;2.9;2.7;;;;;;;;;;;;;
2022/09/01 15:12:02;;;;;;;3;2.7;;;;;;;;;;;;;
2022/09/01 15:14:28;;;;;;;3.1;2.8;;;;;;;;;;;;;
2022/09/01 15:16:54;;;;;;;2.9;2.5;;;;;;;;;;;;;
2022/09/01 15:19:19;;;;;;;2.9;2.7;;;;;;;;;;;;;
2022/09/01 15:21:44;;;;;;;2.7;2.5;;;;;;;;;;;;;
2022/09/01 15:24:09;;;;;;;2.5;2.3;;;;;;;;;;;;;
2022/09/01 15:26:36;;;;;;;3.1;2.8;;;;;;;;;;;;;
2022/09/01 15:29:00;;;;;;;3.8;2.5;;;;;;;;;;;;;
2022/09/01 15:31:30;;;;;;;3.5;3;;;;;;;;;;;;;
2022/09/01 15:33:52;;;;;;;3.1;2.8;;;;;;;;;;;;;
2022/09/01 15:36:19;;;;;;;3.1;2.4;;;;;;;;;;;;;
2022/09/01 15:38:45;;;;;;;3.4;2.6;;;;;;;;;;;;;
2022/09/01 15:41:10;;;;;;;2.6;2.4;;;;;;;;;;;;;
2022/09/01 15:43:35;;;;;;;2.8;2.6;;;;;;;;;;;;;
2022/09/01 15:46:01;;;;;;;2.6;2.4;;;;;;;;;;;;;
2022/09/01 15:48:27;;;;;;;2.6;2.4;;;;;;;;;;;;;
2022/09/01 15:50:53;;;;;;;2.9;2.7;;;;;;;;;;;;;
2022/09/01 15:53:17;;;;;;;6.3;2.8;;;;;;;;;;;;;
2022/09/01 15:55:43;;;;;;;3.1;2.7;;;;;;;;;;;;;
2022/09/01 15:58:08;;;;;;;3.2;2.3;;;;;;;;;;;;;
2022/09/01 16:00:35;;;;;;;2.8;2.5;;;;;;;;;;;;;
2022/09/01 16:03:01;;;;;;;2.7;2.5;;;;;;;;;;;;;
2022/09/01 16:05:26;;;;;;;2.9;2.4;;;;;;;;;;;;;
2022/09/01 16:07:51;;;;;;;3.9;2.7;;;;;;;;;;;;;
2022/09/01 16:10:19;;;;;;;3.6;2.9;;;;;;;;;;;;;
2022/09/01 16:12:47;;;;;;;3.1;2.6;;;;;;;;;;;;;
2022/09/01 16:15:09;;;;;;;3.2;2.7;;;;;;;;;;;;;
2022/09/01 16:17:36;;;;;;;3.1;2.8;;;;;;;;;;;;;
2022/09/01 16:20:01;;;;;;;3.5;2.6;;;;;;;;;;;;;
2022/09/01 16:22:26;;;;;;;3.4;2.6;;;;;;;;;;;;;
2022/09/01 16:24:53;;;;;;;2.7;2.5;;;;;;;;;;;;;
2022/09/01 16:27:18;;;;;;;3.9;2.8;;;;;;;;;;;;;
2022/09/01 16:29:43;;;;;;;3.2;2.9;;;;;;;;;;;;;
2022/09/01 16:32:09;;;;;;;2.7;2.5;;;;;;;;;;;;;
2022/09/01 16:34:34;;;;;;;2.9;2.6;;;;;;;;;;;;;
2022/09/01 16:37:00;;;;;;;3;2.8;;;;;;;;;;;;;
2022/09/01 16:39:25;;;;;;;2.9;2.5;;;;;;;;;;;;;
2022/09/01 16:41:53;;;;;;;3.7;2.7;;;;;;;;;;;;;
2022/09/01 16:44:18;;;;;;;3.5;2.9;;;;;;;;;;;;;
2022/09/01 16:46:46;;;;;;;3;2.7;;;;;;;;;;;;;
2022/09/01 16:49:13;;;;;;;3;2.7;;;;;;;;;;;;;
2022/09/01 16:51:36;;;;;;;3.2;2.9;;;;;;;;;;;;;
2022/09/01 16:54:01;;;;;;;3.3;3;;;;;;;;;;;;;
2022/09/01 16:56:43;;;;;;;3.1;2.8;;;;;;;;;;;;;
2022/09/01 16:59:03;;;;;;;3.2;2.9;;;;;;;;;;;;;
2022/09/01 17:01:29;;;;;;;3;2.7;;;;;;;;;;;;;
2022/09/01 17:03:55;;;;;;;3.8;2.7;;;;;;;;;;;;;
2022/09/01 17:06:20;;;;;;;2.8;2.6;;;;;;;;;;;;;
2022/09/01 17:08:45;;;;;;;3.1;2.8;;;;;;;;;;;;;
2022/09/01 17:11:10;;;;;;;4;2.8;;;;;;;;;;;;;
2022/09/01 17:13:37;;;;;;;2.9;2.7;;;;;;;;;;;;;
2022/09/01 17:16:02;;;;;;;3.7;2.9;;;;;;;;;;;;;
2022/09/01 17:18:29;;;;;;;4;3.2;;;;;;;;;;;;;
2022/09/01 17:20:54;;;;;;;4.6;2.8;;;;;;;;;;;;;
2022/09/01 17:23:26;;;;;;;3.5;2.6;;;;;;;;;;;;;
2022/09/01 17:25:46;;;;;;;3.1;2.8;;;;;;;;;;;;;
2022/09/01 17:28:13;;;;;;;3.3;2.8;;;;;;;;;;;;;
2022/09/01 17:30:41;;;;;;;4;2.5;;;;;;;;;;;;;
2022/09/01 17:33:07;;;;;;;2.9;2.7;;;;;;;;;;;;;
2022/09/01 17:35:30;;;;;;;2.7;2.5;;;;;;;;;;;;;
2022/09/01 17:37:55;;;;;;;4.3;2.6;;;;;;;;;;;;;
2022/09/01 17:40:19;;;;;;;4;2.9;;;;;;;;;;;;;
2022/09/01 17:42:52;;;;;;;2.8;2.6;;;;;;;;;;;;;
2022/09/01 17:45:14;;;;;;;3.9;2.8;;;;;;;;;;;;;
2022/09/01 17:47:40;;;;;;;4.2;3;;;;;;;;;;;;;
2022/09/01 17:50:08;;;;;;;3;2.7;;;;;;;;;;;;;